Skip to main content

NOAA/GLERL Met Station at Chicago, IL

Previous 3 Hours (2 minute increments)
See also Previous 5 Days (top of hour)
Jump down to Data
Switch to [English][Metric]
Zoom: Click and drag, Pan: shift-click and drag, Unzoom: double-click, Unzoom All




See also 1-day windrose plot


NOAA/GLERL Met Station at Chicago, IL

Previous 3 Hours (2 minute increments)
See also Previous 5 Days (top of hour only)
Jump up to Graphs
Switch to [English][Metric]
                  Wind  Wind  Wind   Air   Dew   Rel
                   Spd   Gst   Dir  Temp    Pt   Hum
YYYY-MM-DD   CDT   kts   kts   deg     F     F     %
2019-08-24 15:50  11.9  13.8    47  69.1  53.2  56.5
2019-08-24 15:48  11.7  13.2    41  69.1  53.2  56.5
2019-08-24 15:46  11.1  13.0    39  68.9  52.7  55.8
2019-08-24 15:44  11.5  13.0    38  68.9  52.6  55.5
2019-08-24 15:42  12.8  14.8    44  68.9  52.1  54.5
2019-08-24 15:40  11.5  12.8    46  68.9  51.7  53.8
2019-08-24 15:38  11.3  12.8    48  69.1  52.7  55.5
2019-08-24 15:36  10.5  11.9    43  68.9  52.5  55.3
2019-08-24 15:34  11.9  13.6    43  68.9  52.6  55.6
2019-08-24 15:32  11.5  12.8    47  68.9  52.9  56.2
2019-08-24 15:30  10.3  11.5    42  69.1  53.7  57.6
2019-08-24 15:28   9.7  12.1    51  68.9  53.2  56.8
2019-08-24 15:26  11.7  13.8    56  68.7  52.7  56.1
2019-08-24 15:24  12.4  13.8    49  68.7  52.9  56.5
2019-08-24 15:22  10.1  11.5    52  68.7  53.6  58.1
2019-08-24 15:20  11.3  12.8    38  68.7  54.1  59.1
2019-08-24 15:18  11.1  12.4    36  68.7  53.4  57.6
2019-08-24 15:16  11.9  13.2    42  68.5  52.9  56.9
2019-08-24 15:14  13.6  15.0    43  68.5  53.0  57.2
2019-08-24 15:12  12.1  13.0    46  68.7  53.5  57.8
2019-08-24 15:10  12.2  14.4    54  68.7  52.9  56.5
2019-08-24 15:08  12.8  15.0    56  68.7  53.2  57.1
2019-08-24 15:06  13.0  14.6    50  68.5  52.6  56.2
2019-08-24 15:04  12.4  13.6    52  68.5  52.5  56.1
2019-08-24 15:02  13.6  14.8    53  68.7  53.9  58.8
2019-08-24 15:00  10.5  12.4    42  68.7  53.5  57.9
2019-08-24 14:58  10.7  12.1    53  68.9  53.5  57.5
2019-08-24 14:56  11.7  12.8    65  68.7  52.1  55.0
2019-08-24 14:54  13.2  14.6    61  68.7  51.9  54.6
2019-08-24 14:52  11.3  13.2    59  68.7  52.9  56.5
2019-08-24 14:50  12.1  14.2    59  68.7  51.7  54.2
2019-08-24 14:48  12.1  13.8    57  68.9  53.6  57.7
2019-08-24 14:46  10.5  11.5    55  68.7  52.6  56.0
2019-08-24 14:44  12.4  14.0    56  68.7  52.7  56.1
2019-08-24 14:42  13.2  14.6    48  68.7  52.6  56.0
2019-08-24 14:40  12.6  15.0    49  68.7  52.4  55.5
2019-08-24 14:38  10.5  13.2    56  68.9  53.7  58.0
2019-08-24 14:36  11.9  13.4    50  68.7  51.8  54.3
2019-08-24 14:34  10.9  13.2    52  69.1  53.0  56.0
2019-08-24 14:32  11.5  13.0    62  68.9  51.5  53.4
2019-08-24 14:30   9.9  12.4    53  68.9  52.1  54.6
2019-08-24 14:28  10.3  12.2    56  68.9  52.3  55.0
2019-08-24 14:26  10.1  11.1    56  68.9  51.4  53.2
2019-08-24 14:24  12.6  14.0    62  68.9  50.9  52.2
2019-08-24 14:22  11.5  13.4    63  68.7  51.4  53.5
2019-08-24 14:20  12.1  13.4    69  68.9  52.0  54.4
2019-08-24 14:18  11.5  14.6    64  68.9  52.4  55.2
2019-08-24 14:16  11.5  12.8    58  68.9  52.1  54.5
2019-08-24 14:14  11.1  11.9    74  68.7  51.8  54.3
2019-08-24 14:12  10.9  12.2    78  68.9  52.4  55.1
2019-08-24 14:10  11.1  13.4    65  68.9  51.9  54.1
2019-08-24 14:08  11.1  13.6    60  68.9  51.1  52.6
2019-08-24 14:06  12.8  14.2    64  68.9  51.3  53.0
2019-08-24 14:04  12.1  14.2    65  68.9  50.8  52.0
2019-08-24 14:02  13.6  15.2    72  69.1  52.1  54.2
2019-08-24 14:00  12.8  14.4    66  69.1  51.6  53.3
2019-08-24 13:58  13.0  16.1    70  69.3  52.3  54.3
2019-08-24 13:56  10.9  14.8    72  68.9  53.0  56.5
2019-08-24 13:54   9.9  12.6    73  68.7  51.6  53.9
2019-08-24 13:52  11.5  12.6    74  68.9  51.7  53.7
2019-08-24 13:50  10.7  13.2    71  69.1  52.1  54.2
2019-08-24 13:48  11.1  13.4    71  68.9  51.2  52.8
2019-08-24 13:46  13.0  14.4    75  68.9  51.3  53.0
2019-08-24 13:44  12.1  14.2    69  69.1  50.8  51.6
2019-08-24 13:42  10.7  12.6    68  68.9  51.5  53.3
2019-08-24 13:40  12.1  13.8    71  68.9  51.6  53.6
2019-08-24 13:38  10.3  13.4    74  68.7  51.2  53.2
2019-08-24 13:36   9.7  11.1    72  68.7  51.2  53.2
2019-08-24 13:34  11.1  12.4    79  68.7  51.1  53.0
2019-08-24 13:32  12.1  13.6    82  68.7  50.5  51.8
2019-08-24 13:30  13.2  15.2    86  68.7  51.5  53.7
2019-08-24 13:28  11.1  12.2    92  68.7  51.8  54.4
2019-08-24 13:26  10.7  11.9    88  68.7  52.6  55.9
2019-08-24 13:24  10.7  12.1    85  68.5  51.7  54.5
2019-08-24 13:22  11.9  13.0    86  68.7  51.9  54.6
2019-08-24 13:20  11.5  12.6    86  68.7  51.6  54.0
2019-08-24 13:18  10.9  12.4    91  68.7  52.7  56.1
2019-08-24 13:16  10.3  12.1    90  68.7  53.4  57.6
2019-08-24 13:14  10.1  12.1    87  68.7  52.7  56.2
2019-08-24 13:12  10.1  11.1    73  68.7  52.9  56.6
2019-08-24 13:10  10.3  11.1    87  68.4  51.4  54.2
2019-08-24 13:08  12.1  13.2    84  68.5  51.4  53.9
2019-08-24 13:06  12.1  14.0    84  68.5  51.1  53.3
2019-08-24 13:04  10.9  12.4    91  68.4  52.4  56.3
2019-08-24 13:02  11.1  12.4    80  68.4  51.3  54.0
2019-08-24 13:00  11.5  12.4    88  68.4  50.8  53.0
2019-08-24 12:58  13.0  14.0    93  68.5  52.0  55.0
2019-08-24 12:56  11.7  13.8    85  68.5  52.0  55.0
2019-08-24 12:54  12.2  13.8    88  68.7  51.9  54.5
2019-08-24 12:52  11.7  13.6    82  68.5  51.7  54.4
2019-08-24 12:50  13.6  15.0    85  68.5  51.1  53.2